METAR AND TAF INFORMATION
METAR FOR EFKU
ADDS - METARS form results

(0301 UTC 01 June 2020)
Data provider http://aviationweather.gov/metar/data/
 
METAR text: EFKU 010250Z AUTO 01004KT 330V090 9999 OVC030 12/07 Q1026
Conditions at: EFKU (KUOPIO (MIL/CIV), FI) observed 0250 UTC 01 June 2020
Temperature: 12.0°C (54°F)
Dewpoint: 7.0°C (45°F) [RH = 71%]
Pressure (altimeter): 30.30 inches Hg (1026.0 mb)
Winds: from the N (10 degrees) at 5 MPH (4 knots; 2.1 m/s)
Visibility: 6 or more miles (10+ km)
Ceiling: 3000 feet AGL
Clouds: overcast cloud deck at 3000 feet AGL
Weather: no significant weather observed at this time

METAR text: EFKU 010220Z AUTO 35006KT 9999 BKN029 12/07 Q1026
Conditions at: EFKU (KUOPIO (MIL/CIV), FI) observed 0220 UTC 01 June 2020
Temperature: 12.0°C (54°F)
Dewpoint: 7.0°C (45°F) [RH = 71%]
Pressure (altimeter): 30.30 inches Hg (1026.0 mb)
Winds: from the N (350 degrees) at 7 MPH (6 knots; 3.1 m/s)
Visibility: 6 or more miles (10+ km)
Ceiling: 2900 feet AGL
Clouds: broken clouds at 2900 feet AGL
Weather: no significant weather observed at this time

Forecast for: EFKU (KUOPIO (MIL/CIV), FI)
Text: TAF EFKU 010223Z 0103/0203 35006KT 9999 BKN030
Forecast period: 0300 UTC 01 June 2020 to 0300 UTC 02 June 2020
Forecast type: FROM: standard forecast or significant change
Winds: from the N (350 degrees) at 7 MPH (6 knots; 3.1 m/s)
Visibility: 6 or more miles 10+ km)
Ceiling: 3000 feet AGL
Clouds: broken clouds at 3000 feet AGL
Weather: no significant weather forecast for this period

 AIRPORT MAP

 RUNWAY INFORMATION
Runway 06 Runway length 4921 ft Runway width 148 ft
Runway elevation 304 ft Runway displaced threshold 0 ft Runway heading 67
Runway 24 Runway length 4921 ft Runway width 148 ft
Runway elevation 284 ft Runway displaced threshold 0 ft Runway heading 247
Runway 15 Runway length 9186 ft Runway width 197 ft
Runway elevation 306 ft Runway displaced threshold 0 ft Runway heading 157
Runway 33 Runway length 9186 ft Runway width 197 ft
Runway elevation 316 ft Runway displaced threshold 0 ft Runway heading 337

 AIRPORT FREQUENCIES
Type APP Name APP Frequency 130.6 MHZ
Type ATIS Name ATIS Frequency 113 MHZ
Type TWR Name TWR Frequency 120.15 MHZ

 AIRPORT NEAR NAVIGATION AIDS
Type NDB Name Kurki Frequency 310 KHZ
Type VOR-DME Name Vehkaa Frequency 113000 KHZ



Powered by Virtual Airlines Manager [v2.6.2]